Time;durP1;ratioP1;P1;durP2;ratioP2;P2;SDS_P1;SDS_P2;PMS_P1;PMS_P2;Temp;Humidity;BMP_temperature;BMP_pressure;BME280_temperature;BME280_humidity;BME280_pressure;Samples;Min_cycle;Max_cycle;Signal;HPM_P1;HPM_P2
2022/08/24 00:00:12;;;;;;;5.82;4.10;;;30.90;99.90;;;;;;5054023;28;20128;-48
2022/08/24 00:02:37;;;;;;;5.72;3.65;;;30.90;99.90;;;;;;5053648;28;20017;-48
2022/08/24 00:05:04;;;;;;;4.18;3.50;;;30.90;99.90;;;;;;5053593;28;20033;-49
2022/08/24 00:07:30;;;;;;;5.05;3.80;;;30.90;99.90;;;;;;5053562;28;20032;-48
2022/08/24 00:09:57;;;;;;;4.90;3.90;;;30.90;99.90;;;;;;5053490;28;20492;-48
2022/08/24 00:12:23;;;;;;;5.00;3.33;;;30.80;99.90;;;;;;5053410;28;20029;-48
2022/08/24 00:14:49;;;;;;;4.95;3.08;;;30.80;99.90;;;;;;5053235;28;20338;-48
2022/08/24 00:17:15;;;;;;;5.85;3.75;;;30.80;99.90;;;;;;5053309;28;20227;-48
2022/08/24 00:19:41;;;;;;;4.25;3.38;;;30.80;99.90;;;;;;5053566;28;20022;-48
2022/08/24 00:22:08;;;;;;;7.57;3.72;;;30.80;99.90;;;;;;5053270;28;20027;-48
2022/08/24 00:24:34;;;;;;;;;;;30.80;99.90;;;;;;5054152;28;20029;-48
2022/08/24 00:27:00;;;;;;;5.47;3.37;;;30.80;99.90;;;;;;5053161;28;19908;-48
2022/08/24 00:29:26;;;;;;;4.65;3.70;;;30.80;99.90;;;;;;5053108;28;20435;-48
2022/08/24 00:31:52;;;;;;;4.05;3.35;;;30.80;99.90;;;;;;5053120;28;20083;-48
2022/08/24 00:34:18;;;;;;;3.67;3.20;;;30.80;99.90;;;;;;5035057;28;20037;-48
2022/08/24 00:36:44;;;;;;;7.03;3.30;;;30.80;99.90;;;;;;5053102;28;20029;-48
2022/08/24 00:39:11;;;;;;;4.70;3.20;;;30.70;99.90;;;;;;5053025;28;20112;-49
2022/08/24 00:41:43;;;;;;;5.43;4.03;;;30.70;99.90;;;;;;5052114;28;20025;-49
2022/08/24 00:44:09;;;;;;;5.57;3.45;;;30.70;99.90;;;;;;5052804;28;20033;-48
2022/08/24 00:46:42;;;;;;;4.38;3.45;;;30.70;99.90;;;;;;5034903;28;20017;-48
2022/08/24 00:49:47;;;;;;;4.22;3.58;;;30.70;99.90;;;;;;5052784;28;20041;-48
2022/08/24 00:52:23;;;;;;;5.53;3.80;;;30.70;99.90;;;;;;5049396;28;20098;-49
2022/08/24 00:54:54;;;;;;;5.13;3.58;;;30.70;99.90;;;;;;5052488;28;20554;-48
2022/08/24 00:57:25;;;;;;;5.22;4.05;;;30.70;99.90;;;;;;5052700;28;20036;-48
2022/08/24 00:59:59;;;;;;;6.28;3.63;;;30.70;99.90;;;;;;5035156;28;20036;-48
2022/08/24 01:02:30;;;;;;;3.90;3.25;;;30.60;99.90;;;;;;5034629;28;20032;-48
2022/08/24 01:05:00;;;;;;;4.00;3.30;;;30.60;99.90;;;;;;5052374;28;20039;-49
2022/08/24 01:07:28;;;;;;;4.75;3.78;;;30.60;99.90;;;;;;5052307;28;20021;-48
2022/08/24 01:09:58;;;;;;;4.82;3.63;;;30.60;99.90;;;;;;5034482;28;20025;-48
2022/08/24 01:12:27;;;;;;;4.57;3.97;;;30.60;99.90;;;;;;5052331;28;20476;-49
2022/08/24 01:14:55;;;;;;;5.75;3.58;;;30.60;99.90;;;;;;5052166;28;20095;-49
2022/08/24 01:20:06;;;;;;;4.38;3.50;;;30.60;99.90;;;;;;5052216;28;20083;-48
2022/08/24 01:22:38;;;;;;;5.00;4.05;;;30.60;99.90;;;;;;5052177;28;20063;-48
2022/08/24 01:25:05;;;;;;;5.53;3.30;;;30.60;99.90;;;;;;5052152;28;20029;-48
2022/08/24 01:27:32;;;;;;;4.43;3.45;;;30.60;99.90;;;;;;5052027;28;20028;-48
2022/08/24 01:30:00;;;;;;;;;;;30.60;99.90;;;;;;5052526;28;20047;-48
2022/08/24 01:32:26;;;;;;;4.82;3.53;;;30.60;99.90;;;;;;5052046;28;20288;-47
2022/08/24 01:34:54;;;;;;;4.80;3.33;;;30.60;99.90;;;;;;5051786;28;20037;-48
2022/08/24 01:37:21;;;;;;;4.57;3.08;;;30.60;99.90;;;;;;5051885;28;20045;-48
2022/08/24 01:39:48;;;;;;;;;;;30.50;99.90;;;;;;5052444;28;20080;-48
2022/08/24 01:42:14;;;;;;;3.95;3.20;;;30.50;99.90;;;;;;5051661;28;19912;-48
2022/08/24 01:44:41;;;;;;;3.92;3.15;;;30.50;99.90;;;;;;5051730;28;20487;-49
2022/08/24 01:47:09;;;;;;;4.05;3.33;;;30.50;99.90;;;;;;5051691;28;20032;-48
2022/08/24 01:49:40;;;;;;;4.35;3.28;;;30.50;99.90;;;;;;5051743;28;20040;-48
2022/08/24 01:52:08;;;;;;;5.30;3.22;;;30.50;99.90;;;;;;5051491;28;20369;-49
2022/08/24 01:54:35;;;;;;;3.72;3.00;;;30.50;99.90;;;;;;5051524;28;20033;-48
2022/08/24 01:57:01;;;;;;;3.92;2.85;;;30.50;99.90;;;;;;5051523;28;20056;-48
2022/08/24 01:59:27;;;;;;;4.68;3.33;;;30.50;99.90;;;;;;5051749;28;20021;-48
2022/08/24 02:02:00;;;;;;;4.97;3.07;;;30.50;99.90;;;;;;5051340;28;20484;-48
2022/08/24 02:04:26;;;;;;;5.93;3.47;;;30.40;99.90;;;;;;5051486;28;20071;-48
2022/08/24 02:06:53;;;;;;;4.15;2.78;;;30.50;99.90;;;;;;5033463;28;20465;-48
2022/08/24 02:09:19;;;;;;;3.63;2.70;;;30.40;99.90;;;;;;5051582;28;20025;-48
2022/08/24 02:11:46;;;;;;;4.13;2.65;;;30.40;99.90;;;;;;5051308;28;20357;-49
2022/08/24 02:14:12;;;;;;;4.22;2.90;;;30.40;99.90;;;;;;5051028;28;20076;-48
2022/08/24 02:16:38;;;;;;;4.95;3.22;;;30.40;99.90;;;;;;5051150;28;20072;-48
2022/08/24 02:19:04;;;;;;;3.97;3.03;;;30.40;99.90;;;;;;5033269;28;20035;-48
2022/08/24 02:21:30;;;;;;;3.95;2.85;;;30.40;99.90;;;;;;5051116;28;20033;-48
2022/08/24 02:23:56;;;;;;;4.47;3.50;;;30.40;99.90;;;;;;5051095;28;20527;-51
2022/08/24 02:26:22;;;;;;;4.40;2.80;;;30.40;99.90;;;;;;5051243;28;20059;-48
2022/08/24 02:28:47;;;;;;;3.58;2.92;;;30.30;99.90;;;;;;5033212;28;20021;-48
2022/08/24 02:31:14;;;;;;;3.95;3.30;;;30.40;99.90;;;;;;5050752;28;20131;-48
2022/08/24 02:33:40;;;;;;;4.68;2.95;;;30.40;99.90;;;;;;5050878;28;20021;-48
2022/08/24 02:36:07;;;;;;;5.18;2.30;;;30.30;99.90;;;;;;5050987;28;20032;-48
2022/08/24 02:38:33;;;;;;;3.03;2.70;;;30.30;99.90;;;;;;5050975;28;20033;-48
2022/08/24 02:41:00;;;;;;;3.45;2.58;;;30.40;99.90;;;;;;5050904;28;20105;-48
2022/08/24 02:43:26;;;;;;;4.38;3.05;;;30.30;99.90;;;;;;5050856;28;20053;-48
2022/08/24 02:45:52;;;;;;;4.15;2.75;;;30.30;99.90;;;;;;5051019;28;20457;-48
2022/08/24 02:48:19;;;;;;;4.07;3.03;;;30.30;99.90;;;;;;5032994;28;20158;-49
2022/08/24 02:50:48;;;;;;;4.32;2.83;;;30.30;99.90;;;;;;5050798;28;20029;-48
2022/08/24 02:53:16;;;;;;;4.00;2.55;;;30.30;99.90;;;;;;5050616;28;20029;-48
2022/08/24 02:55:42;;;;;;;3.92;2.58;;;30.30;99.90;;;;;;5050663;28;20052;-48
2022/08/24 02:58:10;;;;;;;4.40;2.97;;;30.30;99.90;;;;;;5032910;28;20029;-48
2022/08/24 03:00:37;;;;;;;;;;;30.30;99.90;;;;;;5051583;28;20496;-48
2022/08/24 03:03:03;;;;;;;;;;;30.30;99.90;;;;;;5051204;28;20242;-48
2022/08/24 03:05:28;;;;;;;3.75;2.50;;;30.30;99.90;;;;;;5053212;28;19911;-48
2022/08/24 03:07:56;;;;;;;3.05;2.75;;;30.30;99.90;;;;;;5054774;28;20104;-48
2022/08/24 03:10:22;;;;;;;4.32;2.58;;;30.20;99.90;;;;;;5054856;28;20045;-48
2022/08/24 03:12:49;;;;;;;3.43;2.40;;;30.20;99.90;;;;;;5054714;28;20536;-47
2022/08/24 03:15:16;;;;;;;9.27;2.63;;;30.20;99.90;;;;;;5054424;28;20042;-48
2022/08/24 03:17:42;;;;;;;2.83;2.15;;;30.20;99.90;;;;;;5054514;28;20029;-48
2022/08/24 03:20:13;;;;;;;2.50;2.08;;;30.20;99.90;;;;;;5054464;28;20044;-48
2022/08/24 03:22:39;;;;;;;4.18;2.40;;;30.20;99.90;;;;;;5054393;28;20025;-49
2022/08/24 03:25:06;;;;;;;2.72;2.30;;;30.20;99.90;;;;;;5054392;28;20401;-49
2022/08/24 03:27:32;;;;;;;3.63;2.30;;;30.20;99.90;;;;;;5054202;28;20037;-49
2022/08/24 03:29:58;;;;;;;3.75;2.30;;;30.20;99.90;;;;;;5054323;28;20044;-49
2022/08/24 03:32:23;;;;;;;3.30;2.38;;;30.20;99.90;;;;;;5054367;28;20025;-49
2022/08/24 03:34:49;;;;;;;2.65;2.22;;;30.20;99.90;;;;;;5054094;28;20075;-48
2022/08/24 03:37:15;;;;;;;2.75;2.03;;;30.20;99.90;;;;;;5053953;28;20071;-48
2022/08/24 03:39:41;;;;;;;2.40;2.15;;;30.20;99.90;;;;;;5036297;28;20029;-48
2022/08/24 03:42:07;;;;;;;3.15;2.30;;;30.20;99.90;;;;;;5053964;28;20036;-48
2022/08/24 03:44:33;;;;;;;4.03;2.33;;;30.20;99.90;;;;;;5054055;28;20419;-48
2022/08/24 03:46:59;;;;;;;3.40;2.55;;;30.20;99.90;;;;;;5053834;28;20056;-48
2022/08/24 03:49:25;;;;;;;2.95;2.00;;;30.20;99.90;;;;;;5036098;28;20384;-48
2022/08/24 03:51:51;;;;;;;4.45;2.65;;;30.10;99.90;;;;;;5054139;28;20118;-48
2022/08/24 03:54:17;;;;;;;2.50;2.22;;;30.10;99.90;;;;;;5035877;28;20457;-48
2022/08/24 03:56:44;;;;;;;5.90;2.58;;;30.10;99.90;;;;;;5053741;28;20028;-48
2022/08/24 03:59:10;;;;;;;2.80;2.33;;;30.10;99.90;;;;;;5053810;28;20025;-48
2022/08/24 04:01:37;;;;;;;3.28;2.45;;;30.10;99.90;;;;;;5054471;28;20124;-48
2022/08/24 04:04:04;;;;;;;1.80;1.70;;;30.10;99.90;;;;;;5053556;28;20031;-49
2022/08/24 04:06:30;;;;;;;3.45;1.95;;;30.10;99.90;;;;;;5053658;28;20029;-49
2022/08/24 04:08:56;;;;;;;3.08;2.20;;;30.10;99.90;;;;;;5053595;28;20082;-49
2022/08/24 04:11:26;;;;;;;3.63;2.05;;;30.00;99.90;;;;;;5053548;28;20029;-49
2022/08/24 04:13:57;;;;;;;2.00;1.80;;;30.10;99.90;;;;;;5053240;28;20051;-49
2022/08/24 04:16:25;;;;;;;2.83;2.30;;;30.10;99.90;;;;;;5052300;28;20051;-49
2022/08/24 04:18:51;;;;;;;;;;;30.10;99.90;;;;;;5053724;28;20048;-49
2022/08/24 04:21:20;;;;;;;2.58;1.90;;;30.10;99.90;;;;;;5035330;28;19904;-49
2022/08/24 04:23:47;;;;;;;3.30;2.28;;;30.00;99.90;;;;;;5053315;28;20025;-49
2022/08/24 04:26:13;;;;;;;2.50;1.67;;;30.00;99.90;;;;;;5053167;28;20127;-48
2022/08/24 04:28:39;;;;;;;3.47;2.30;;;30.00;99.90;;;;;;5053019;28;20481;-49
2022/08/24 04:31:06;;;;;;;5.05;2.53;;;30.00;99.90;;;;;;5053034;28;20258;-49
2022/08/24 04:33:31;;;;;;;2.83;1.80;;;30.00;99.90;;;;;;5053121;28;20071;-48
2022/08/24 04:35:58;;;;;;;2.65;2.03;;;30.00;99.90;;;;;;5053494;28;20087;-48
2022/08/24 04:38:24;;;;;;;1.95;1.75;;;30.00;99.90;;;;;;5052918;28;20380;-48
2022/08/24 04:40:50;;;;;;;4.00;1.80;;;30.00;99.90;;;;;;5052836;28;20029;-48
2022/08/24 04:43:16;;;;;;;3.80;2.15;;;30.00;99.90;;;;;;5035185;28;20041;-48
2022/08/24 04:45:44;;;;;;;3.45;1.75;;;30.00;99.90;;;;;;5052851;28;20033;-48
2022/08/24 04:48:10;;;;;;;2.58;1.80;;;30.00;99.90;;;;;;5052717;28;20025;-49
2022/08/24 04:50:38;;;;;;;2.17;1.90;;;30.00;99.90;;;;;;5052726;28;20021;-48
2022/08/24 04:53:05;;;;;;;4.45;2.63;;;30.00;99.90;;;;;;5052451;28;20033;-48
2022/08/24 04:55:31;;;;;;;3.40;2.57;;;30.00;99.90;;;;;;5052724;28;20544;-48
2022/08/24 04:57:57;;;;;;;3.20;2.20;;;30.00;99.90;;;;;;5052686;28;20262;-48
2022/08/24 05:00:23;;;;;;;4.05;2.00;;;29.90;99.90;;;;;;5052447;28;20099;-48
2022/08/24 05:02:49;;;;;;;3.33;2.03;;;30.00;99.90;;;;;;5052428;28;20441;-48
2022/08/24 05:05:15;;;;;;;2.65;1.90;;;29.90;99.90;;;;;;5052443;28;20029;-48
2022/08/24 05:07:41;;;;;;;2.42;1.65;;;29.90;99.90;;;;;;5052410;28;20029;-48
2022/08/24 05:10:09;;;;;;;2.97;1.92;;;29.90;99.90;;;;;;5052261;28;20067;-48
2022/08/24 05:12:36;;;;;;;2.90;2.05;;;29.90;99.90;;;;;;5052252;28;20032;-48
2022/08/24 05:15:03;;;;;;;3.70;2.00;;;29.90;99.90;;;;;;5052388;28;20087;-48
2022/08/24 05:17:29;;;;;;;2.63;1.70;;;29.90;99.90;;;;;;5052181;28;20465;-49
2022/08/24 05:19:57;;;;;;;1.83;1.63;;;29.90;99.90;;;;;;5052075;28;20045;-49
2022/08/24 05:22:23;;;;;;;2.85;1.73;;;29.90;99.90;;;;;;5034184;28;20025;-49
2022/08/24 05:24:49;;;;;;;4.50;1.77;;;29.90;99.90;;;;;;5051986;28;20028;-49
2022/08/24 05:27:15;;;;;;;2.25;1.60;;;29.90;99.90;;;;;;5051738;28;20021;-49
2022/08/24 05:29:41;;;;;;;2.95;1.77;;;29.90;99.90;;;;;;5051800;28;20406;-50
2022/08/24 05:32:06;;;;;;;6.18;2.22;;;29.90;99.90;;;;;;5051969;28;20029;-49
2022/08/24 05:34:32;;;;;;;2.50;1.80;;;29.90;99.90;;;;;;5052067;28;20044;-49
2022/08/24 05:36:58;;;;;;;4.35;2.30;;;29.90;99.90;;;;;;5051853;28;20021;-49
2022/08/24 05:39:24;;;;;;;2.45;1.88;;;29.90;99.90;;;;;;5051716;28;20021;-49
2022/08/24 05:41:49;;;;;;;2.95;1.38;;;29.90;99.90;;;;;;5051694;28;20075;-49
2022/08/24 05:44:16;;;;;;;2.90;2.15;;;29.90;99.90;;;;;;5051691;28;20103;-49
2022/08/24 05:46:43;;;;;;;2.70;2.05;;;29.90;99.90;;;;;;5033524;28;20017;-49
2022/08/24 05:49:09;;;;;;;4.05;1.88;;;29.90;99.90;;;;;;5051448;28;20473;-49
2022/08/24 05:51:35;;;;;;;1.98;1.42;;;29.90;99.90;;;;;;5051486;28;20393;-49
2022/08/24 05:54:03;;;;;;;3.25;1.63;;;29.90;99.90;;;;;;5033650;28;20033;-49
2022/08/24 05:56:30;;;;;;;3.60;1.73;;;29.90;99.90;;;;;;5051515;28;20502;-49
2022/08/24 05:58:56;;;;;;;4.03;2.13;;;29.90;99.90;;;;;;5051257;28;20025;-49
2022/08/24 06:01:23;;;;;;;1.92;1.70;;;29.90;99.90;;;;;;5033100;28;20415;-49
2022/08/24 06:03:50;;;;;;;2.80;2.00;;;29.90;99.90;;;;;;5051211;28;20044;-49
2022/08/24 06:06:18;;;;;;;2.83;1.67;;;29.90;99.90;;;;;;5033351;28;20452;-49
2022/08/24 06:08:46;;;;;;;3.33;2.03;;;29.90;99.90;;;;;;5033194;28;20051;-49
2022/08/24 06:11:23;;;;;;;3.05;1.88;;;29.90;99.90;;;;;;5051137;28;20104;-49
2022/08/24 06:13:53;;;;;;;3.35;1.95;;;29.90;99.90;;;;;;5033753;28;20052;-49
2022/08/24 06:16:20;;;;;;;3.50;2.10;;;29.90;99.90;;;;;;5051320;28;20025;-49
2022/08/24 06:18:46;;;;;;;2.70;1.77;;;29.90;99.90;;;;;;5051090;28;20021;-49
2022/08/24 06:21:16;;;;;;;4.85;2.22;;;29.90;99.90;;;;;;5050999;28;20486;-48
2022/08/24 06:23:43;;;;;;;2.33;1.80;;;29.90;99.90;;;;;;5050828;28;20400;-49
2022/08/24 06:28:55;;;;;;;1.95;1.65;;;29.90;99.90;;;;;;5051082;28;20028;-48
2022/08/24 06:31:23;;;;;;;4.75;2.10;;;29.90;99.90;;;;;;5050804;28;20033;-48
2022/08/24 06:33:49;;;;;;;4.72;2.10;;;29.90;99.90;;;;;;5050768;28;20021;-49
2022/08/24 06:36:15;;;;;;;2.95;2.08;;;29.90;99.90;;;;;;5050741;28;20039;-49
2022/08/24 06:38:42;;;;;;;3.15;1.98;;;29.90;99.90;;;;;;5032508;28;20017;-49
2022/08/24 06:41:08;;;;;;;2.92;2.10;;;29.90;99.90;;;;;;5050613;28;20473;-50
2022/08/24 06:43:35;;;;;;;7.35;2.40;;;29.90;99.90;;;;;;5050785;28;20021;-49
2022/08/24 06:46:01;;;;;;;2.77;2.10;;;29.90;99.90;;;;;;5050658;28;20032;-50
2022/08/24 06:48:27;;;;;;;7.45;2.75;;;29.90;99.90;;;;;;5050680;28;20063;-49
2022/08/24 06:50:53;;;;;;;2.80;1.90;;;29.90;99.90;;;;;;5050632;28;20115;-49
2022/08/24 06:53:19;;;;;;;4.93;2.58;;;29.90;99.90;;;;;;5050557;28;20515;-49
2022/08/24 06:55:50;;;;;;;5.70;3.00;;;29.90;99.90;;;;;;5050610;28;20041;-49
2022/08/24 06:58:16;;;;;;;2.90;2.25;;;29.90;99.90;;;;;;5050566;28;20039;-49
2022/08/24 07:00:43;;;;;;;3.30;2.08;;;29.90;99.90;;;;;;5050306;28;20099;-50
2022/08/24 07:03:09;;;;;;;2.97;2.53;;;29.90;99.90;;;;;;5032907;28;20495;-49
2022/08/24 07:05:35;;;;;;;3.92;2.42;;;29.90;99.90;;;;;;5050488;28;20393;-49
2022/08/24 07:08:01;;;;;;;3.03;2.10;;;29.90;99.90;;;;;;5050711;28;20028;-49
2022/08/24 07:10:28;;;;;;;2.75;1.92;;;29.90;99.90;;;;;;5050585;28;20043;-49
2022/08/24 07:12:55;;;;;;;3.58;1.98;;;30.00;99.90;;;;;;5050520;28;20028;-49
2022/08/24 07:15:20;;;;;;;4.03;2.63;;;30.00;99.90;;;;;;5050293;28;20491;-49
2022/08/24 07:17:46;;;;;;;3.85;2.45;;;30.00;99.90;;;;;;5050441;28;20161;-49
2022/08/24 07:20:12;;;;;;;4.97;2.53;;;30.00;99.90;;;;;;5050314;28;20457;-50
2022/08/24 07:22:38;;;;;;;5.25;2.90;;;30.00;99.90;;;;;;5050625;28;20321;-49
2022/08/24 07:25:05;;;;;;;3.78;2.53;;;30.00;99.90;;;;;;5050397;28;20637;-50
2022/08/24 07:27:33;;;;;;;3.85;2.80;;;30.00;99.90;;;;;;5050473;28;20037;-49
2022/08/24 07:29:58;;;;;;;;;;;30.00;99.90;;;;;;5050700;28;20140;-50
2022/08/24 07:32:24;;;;;;;5.18;2.90;;;30.00;99.90;;;;;;5050284;28;19935;-49
2022/08/24 07:34:50;;;;;;;3.67;2.92;;;30.00;99.90;;;;;;5050095;28;20029;-50
2022/08/24 07:37:16;;;;;;;5.47;3.00;;;30.00;99.90;;;;;;5050341;28;20053;-50
2022/08/24 07:39:42;;;;;;;4.05;2.47;;;30.00;99.90;;;;;;5050584;28;20504;-50
2022/08/24 07:42:08;;;;;;;4.43;2.92;;;30.00;99.90;;;;;;5050362;28;20035;-50
2022/08/24 07:44:34;;;;;;;4.03;2.53;;;30.10;99.90;;;;;;5050470;28;20033;-50
2022/08/24 07:47:00;;;;;;;5.93;2.42;;;30.10;99.90;;;;;;5050188;28;20052;-49
2022/08/24 07:49:26;;;;;;;3.47;2.33;;;30.10;99.90;;;;;;5050051;28;20381;-49
2022/08/24 07:51:52;;;;;;;2.92;2.45;;;30.10;99.90;;;;;;5052810;28;20025;-50
2022/08/24 07:54:19;;;;;;;4.47;2.72;;;30.10;99.90;;;;;;5053525;28;20040;-50
2022/08/24 07:56:45;;;;;;;3.15;2.35;;;30.10;99.90;;;;;;5053610;28;20080;-50
2022/08/24 07:59:11;;;;;;;3.78;2.67;;;30.10;99.90;;;;;;5054010;28;20086;-49
2022/08/24 08:01:37;;;;;;;3.95;2.50;;;30.10;99.90;;;;;;5053346;28;20114;-50
2022/08/24 08:04:03;;;;;;;3.08;2.63;;;30.20;99.90;;;;;;5053485;28;20025;-50
2022/08/24 08:06:29;;;;;;;3.50;2.30;;;30.20;99.90;;;;;;5035550;28;20078;-49
2022/08/24 08:08:55;;;;;;;5.55;2.97;;;30.20;99.90;;;;;;5053540;28;20080;-49
2022/08/24 08:11:21;;;;;;;3.78;2.63;;;30.20;99.90;;;;;;5053480;28;20082;-49
2022/08/24 08:13:47;;;;;;;3.40;2.40;;;30.10;99.90;;;;;;5053340;28;20075;-50
2022/08/24 08:16:14;;;;;;;3.20;2.47;;;30.10;99.90;;;;;;5053657;28;20067;-50
2022/08/24 08:18:40;;;;;;;3.88;2.85;;;30.20;99.90;;;;;;5053268;28;20025;-50
2022/08/24 08:24:13;;;;;;;3.72;2.97;;;30.20;99.90;;;;;;5053361;28;20056;-51
2022/08/24 08:26:39;;;;;;;2.97;2.60;;;30.20;99.90;;;;;;5053069;28;20362;-50
2022/08/24 08:29:06;;;;;;;3.38;2.38;;;30.20;99.90;;;;;;5053078;28;20078;-50
2022/08/24 08:31:32;;;;;;;3.50;2.63;;;30.20;99.90;;;;;;5053165;28;20051;-51
2022/08/24 08:33:58;;;;;;;3.50;2.75;;;30.20;99.90;;;;;;5034770;28;20028;-50
2022/08/24 08:36:25;;;;;;;3.38;2.78;;;30.20;99.90;;;;;;5052877;28;20033;-50
2022/08/24 08:38:51;;;;;;;4.25;2.95;;;30.20;99.90;;;;;;5052877;28;20028;-50
2022/08/24 08:41:17;;;;;;;4.20;2.42;;;30.20;99.90;;;;;;5052836;28;20039;-50
2022/08/24 08:43:44;;;;;;;3.10;2.60;;;30.20;99.90;;;;;;5052771;28;20024;-51
2022/08/24 08:46:25;;;;;;;6.25;2.63;;;30.20;99.90;;;;;;5052745;28;20534;-50
2022/08/24 08:49:18;;;;;;;5.18;2.75;;;30.20;99.90;;;;;;5052592;28;20040;-50
2022/08/24 08:51:49;;;;;;;3.72;2.75;;;30.20;99.90;;;;;;5034832;28;20115;-50
2022/08/24 08:54:35;;;;;;;3.63;2.42;;;30.20;99.90;;;;;;5052667;28;20377;-51
2022/08/24 08:57:32;;;;;;;3.13;2.50;;;30.20;99.90;;;;;;5052539;28;20036;-50
2022/08/24 09:00:16;;;;;;;4.95;2.60;;;30.20;99.90;;;;;;5052221;28;20273;-50
2022/08/24 09:03:20;;;;;;;3.53;2.63;;;30.20;99.90;;;;;;5051503;28;20032;-50
2022/08/24 09:05:46;;;;;;;5.05;2.72;;;30.20;99.90;;;;;;5052355;28;20028;-51
2022/08/24 09:08:33;;;;;;;6.30;2.58;;;30.30;99.90;;;;;;5051768;28;20021;-50
2022/08/24 09:11:17;;;;;;;;;;;30.30;99.90;;;;;;5052559;28;20045;-50
2022/08/24 09:13:59;;;;;;;5.15;2.78;;;30.30;99.90;;;;;;5051923;28;19905;-49
2022/08/24 09:17:12;;;;;;;5.57;3.17;;;30.30;99.90;;;;;;5052202;28;20499;-50
2022/08/24 09:20:15;;;;;;;7.38;2.80;;;30.30;99.90;;;;;;5045474;28;20149;-50
2022/08/24 09:22:43;;;;;;;5.30;3.28;;;30.30;99.90;;;;;;5051996;28;20037;-49
2022/08/24 09:25:12;;;;;;;5.97;2.60;;;30.30;99.90;;;;;;5052042;28;20509;-50
2022/08/24 09:28:09;;;;;;;5.22;2.95;;;30.30;99.90;;;;;;5051713;28;20029;-49
2022/08/24 09:31:03;;;;;;;4.03;2.72;;;30.30;99.90;;;;;;5051781;28;20021;-50
2022/08/24 09:34:01;;;;;;;4.55;2.88;;;30.30;99.90;;;;;;5051942;28;20032;-50
2022/08/24 09:36:46;;;;;;;4.10;2.50;;;30.30;99.90;;;;;;5051675;28;20035;-50
2022/08/24 09:39:49;;;;;;;6.65;3.20;;;30.30;99.90;;;;;;5051774;28;20037;-50
2022/08/24 09:42:24;;;;;;;3.70;2.50;;;30.30;99.90;;;;;;5051619;28;20377;-50
2022/08/24 09:45:23;;;;;;;3.67;2.55;;;30.30;99.90;;;;;;5051784;28;20021;-49
2022/08/24 09:48:08;;;;;;;4.18;2.97;;;30.30;99.90;;;;;;5033675;28;20086;-50
2022/08/24 09:51:04;;;;;;;3.17;2.88;;;30.30;99.90;;;;;;5033585;28;20099;-49
2022/08/24 09:53:47;;;;;;;5.90;2.42;;;30.30;99.90;;;;;;5033550;28;20055;-50
2022/08/24 09:56:19;;;;;;;3.38;2.63;;;30.30;99.90;;;;;;5034875;28;20037;-50
2022/08/24 09:58:49;;;;;;;5.18;3.13;;;30.30;99.90;;;;;;5051254;28;20018;-50
2022/08/24 10:01:22;;;;;;;3.67;2.63;;;30.40;99.90;;;;;;5051057;28;20044;-49
2022/08/24 10:04:07;;;;;;;3.80;2.85;;;30.30;99.90;;;;;;5051393;28;20055;-49
2022/08/24 10:06:41;;;;;;;4.07;3.15;;;30.40;99.90;;;;;;5051222;28;20409;-50
2022/08/24 10:09:25;;;;;;;3.90;2.83;;;30.40;99.90;;;;;;5050974;28;20064;-49
2022/08/24 10:12:00;;;;;;;5.03;3.03;;;30.40;99.90;;;;;;5051424;28;20033;-49
2022/08/24 10:14:53;;;;;;;4.40;2.85;;;30.40;99.90;;;;;;5050054;28;20032;-49
2022/08/24 10:17:41;;;;;;;3.58;2.70;;;30.40;99.90;;;;;;5051125;28;20098;-50
2022/08/24 10:20:13;;;;;;;4.90;3.20;;;30.40;99.90;;;;;;5050713;28;20025;-49
2022/08/24 10:23:00;;;;;;;5.22;3.50;;;30.50;99.90;;;;;;5051039;28;20028;-50
2022/08/24 10:25:39;;;;;;;5.45;3.00;;;30.50;99.90;;;;;;5050638;28;20044;-49
2022/08/24 10:28:13;;;;;;;4.78;3.10;;;30.50;99.90;;;;;;5050677;28;20384;-49
2022/08/24 10:30:57;;;;;;;4.38;3.45;;;30.50;99.90;;;;;;5050692;28;20044;-50
2022/08/24 10:33:28;;;;;;;4.88;3.40;;;30.50;99.90;;;;;;5050701;28;20484;-50
2022/08/24 10:36:11;;;;;;;4.38;3.50;;;30.50;99.90;;;;;;5050779;28;20404;-49
2022/08/24 10:41:59;;;;;;;4.40;3.20;;;30.60;99.90;;;;;;5023325;28;20032;-49
2022/08/24 10:44:44;;;;;;;5.45;3.67;;;30.60;99.90;;;;;;5050466;28;20294;-49
2022/08/24 10:47:27;;;;;;;4.45;3.22;;;30.60;99.90;;;;;;5050522;28;20025;-50
2022/08/24 10:50:13;;;;;;;4.55;3.30;;;30.60;99.90;;;;;;5050886;28;20405;-50
2022/08/24 10:52:47;;;;;;;5.30;3.40;;;30.60;99.90;;;;;;5050602;28;20044;-50
2022/08/24 10:55:30;;;;;;;5.63;3.05;;;30.60;99.90;;;;;;5050413;28;20576;-50
2022/08/24 10:58:36;;;;;;;3.35;2.85;;;30.60;99.90;;;;;;5051068;28;20013;-50
2022/08/24 11:01:28;;;;;;;5.75;3.80;;;30.60;99.90;;;;;;5032834;28;20107;-50
2022/08/24 11:03:54;;;;;;;5.75;3.63;;;30.70;99.90;;;;;;5050639;28;20063;-50
2022/08/24 11:06:22;;;;;;;6.32;3.17;;;30.70;99.90;;;;;;5050451;28;20032;-50
2022/08/24 11:09:02;;;;;;;6.28;4.10;;;30.70;99.90;;;;;;5050528;28;20394;-50
2022/08/24 11:11:30;;;;;;;6.07;3.42;;;30.70;99.90;;;;;;5050488;28;20024;-51
2022/08/24 11:14:02;;;;;;;4.72;3.78;;;30.70;99.90;;;;;;5050661;28;20031;-49
2022/08/24 11:16:39;;;;;;;4.68;3.75;;;30.70;99.90;;;;;;5050411;28;20508;-50
2022/08/24 11:19:09;;;;;;;4.15;3.50;;;30.70;99.90;;;;;;5050376;28;20096;-50
2022/08/24 11:21:47;;;;;;;3.92;3.08;;;30.70;99.90;;;;;;5050407;28;20029;-49
2022/08/24 11:24:39;;;;;;;4.75;3.53;;;30.70;99.90;;;;;;5050300;28;20118;-49
2022/08/24 11:27:17;;;;;;;4.85;3.47;;;30.80;99.90;;;;;;5042656;28;20104;-50
2022/08/24 11:29:48;;;;;;;5.40;4.07;;;30.80;99.90;;;;;;5054131;28;20020;-50
2022/08/24 11:32:27;;;;;;;4.13;3.28;;;30.80;99.90;;;;;;5054066;28;20477;-50
2022/08/24 11:34:54;;;;;;;5.90;3.63;;;30.80;99.90;;;;;;5053926;28;20033;-50
2022/08/24 11:37:31;;;;;;;5.63;3.78;;;30.80;99.90;;;;;;5053921;28;20029;-49
2022/08/24 11:39:57;;;;;;;;;;;30.80;99.90;;;;;;5054515;28;20049;-50
2022/08/24 11:42:34;;;;;;;4.63;3.83;;;30.90;99.90;;;;;;5053733;28;20403;-50
2022/08/24 11:45:27;;;;;;;7.20;3.17;;;30.90;99.90;;;;;;5053799;28;20350;-50
2022/08/24 11:48:14;;;;;;;4.07;3.35;;;30.90;99.90;;;;;;5053823;28;20029;-50
2022/08/24 11:51:24;;;;;;;4.95;3.90;;;30.90;99.90;;;;;;5053526;28;20108;-50
2022/08/24 11:54:28;;;;;;;3.92;3.33;;;30.90;99.90;;;;;;5032748;28;20489;-49
2022/08/24 11:57:18;;;;;;;5.38;3.67;;;31.00;99.90;;;;;;5012728;28;20033;-50
2022/08/24 12:00:15;;;;;;;3.63;3.22;;;31.00;99.90;;;;;;5053415;28;20511;-50
2022/08/24 12:03:06;;;;;;;5.53;3.72;;;31.00;99.90;;;;;;5053505;28;20056;-50
2022/08/24 12:05:49;;;;;;;4.95;3.88;;;31.00;99.90;;;;;;5035238;28;20033;-50
2022/08/24 12:08:25;;;;;;;4.57;3.50;;;31.00;99.90;;;;;;5053361;28;20013;-50
2022/08/24 12:10:53;;;;;;;4.03;3.55;;;31.00;99.90;;;;;;5053197;28;20107;-50
2022/08/24 12:13:42;;;;;;;5.75;3.28;;;31.00;99.90;;;;;;5053426;28;20028;-49
2022/08/24 12:16:13;;;;;;;4.03;3.15;;;31.00;99.90;;;;;;5015637;28;20041;-49
2022/08/24 12:18:42;;;;;;;4.35;3.42;;;31.10;99.90;;;;;;5053151;28;20389;-50
2022/08/24 12:21:11;;;;;;;4.50;3.75;;;31.00;99.90;;;;;;5053104;28;20024;-50
2022/08/24 12:23:43;;;;;;;4.65;3.38;;;31.10;99.90;;;;;;5053279;28;20508;-50
2022/08/24 12:26:27;;;;;;;5.88;3.80;;;31.10;99.90;;;;;;5053154;28;20025;-50
2022/08/24 12:29:27;;;;;;;5.25;3.85;;;31.10;99.90;;;;;;5053069;28;20025;-49
2022/08/24 12:32:05;;;;;;;3.92;3.28;;;31.10;99.90;;;;;;5053021;28;20039;-50
2022/08/24 12:34:36;;;;;;;5.32;3.28;;;31.10;99.90;;;;;;5053134;28;20099;-50
2022/08/24 12:37:07;;;;;;;5.47;3.70;;;31.10;99.90;;;;;;5051966;28;20429;-49
2022/08/24 12:39:53;;;;;;;5.32;3.80;;;31.10;99.90;;;;;;5052794;28;20385;-50
2022/08/24 12:42:53;;;;;;;4.43;3.72;;;31.20;99.90;;;;;;5052710;28;20079;-50
2022/08/24 12:45:22;;;;;;;4.53;3.92;;;31.20;99.90;;;;;;5052874;28;20029;-50
2022/08/24 12:48:12;;;;;;;3.83;3.20;;;31.20;99.90;;;;;;5052557;28;20087;-50
2022/08/24 12:51:18;;;;;;;5.05;3.95;;;31.20;99.90;;;;;;5052680;28;20029;-49
2022/08/24 12:54:23;;;;;;;5.03;3.60;;;31.20;99.90;;;;;;5052545;28;20461;-49
2022/08/24 12:57:04;;;;;;;3.58;3.03;;;31.20;99.90;;;;;;5052509;28;20055;-49
2022/08/24 12:59:51;;;;;;;5.00;3.80;;;31.30;99.90;;;;;;5052416;28;20021;-49
2022/08/24 13:02:17;;;;;;;5.75;3.40;;;31.30;99.90;;;;;;5052358;28;20481;-49
2022/08/24 13:05:04;;;;;;;4.57;3.83;;;31.30;99.90;;;;;;5052185;28;20056;-49
2022/08/24 13:07:39;;;;;;;4.45;4.05;;;31.30;99.90;;;;;;5052366;28;20044;-49
2022/08/24 13:10:05;;;;;;;4.13;3.70;;;31.30;99.90;;;;;;5052146;28;20421;-49
2022/08/24 13:12:40;;;;;;;5.90;4.05;;;31.40;99.90;;;;;;5052503;28;20021;-49
2022/08/24 13:15:29;;;;;;;4.97;3.85;;;31.30;99.90;;;;;;5052311;28;20086;-49
2022/08/24 13:18:07;;;;;;;4.90;3.65;;;31.40;99.90;;;;;;5052118;28;20629;-49
2022/08/24 13:20:42;;;;;;;4.72;4.07;;;31.40;99.90;;;;;;5034447;28;20486;-49
2022/08/24 13:23:14;;;;;;;4.47;3.85;;;31.40;99.90;;;;;;5052046;28;20381;-49